Portada
METAR-TAF:

METAR-TAF

Aeroports :

Francis S. Gabreski Airport

Westhampton Beach, Nova York, Estats Units d'Amèrica

latitud: 40-51-03N, longitud: 072-37-14W, altitud: 20 m

Observació

L'informe es va fer fa 52 minuts, a les 09:53 UTC
Vent 4 kt del Nord/Nord-Oest
Temperatura 19°C
Humitat 100%
Pressió 1013 hPa
Visibilitat: 8.0 km
Cel cobert a una alçada de 300 ft
boirina

METAR: KFOK 190953Z AUTO 33004KT 5SM BR OVC003 19/19 A2992 RMK AO2 SLP130 T01940194

Hora: 06:45 (10:45 UTC)


TAF: manca

Observacions i pronòstics meteorològics de més de 4000 aeroports (METAR i TAF).

Les estacions disponibles són els punts grocs i vermells al mapa.

Posi el ratolí al punt desitjat per veure el nom de l'estació.

Feu clic per veure les observacions i els pronòstics meteorològics.

Per canviar el mapa: feu clic els botons verds amb una creu de color negre per apropar; al botó verd amb un guió per allunyar la imatge; o en les fletxes verdes per a mapes adjacents.


METAR-TAF: